createdAt,value
2019-05-21T00:02:07.805Z,14.60
2019-05-21T00:04:36.458Z,14.60
2019-05-21T00:07:05.160Z,14.70
2019-05-21T00:09:33.848Z,14.70
2019-05-21T00:12:04.321Z,14.70
2019-05-21T00:14:34.505Z,14.70
2019-05-21T00:17:03.381Z,14.70
2019-05-21T00:19:32.637Z,14.70
2019-05-21T00:22:01.352Z,14.80
2019-05-21T00:24:30.128Z,14.80
2019-05-21T00:26:58.767Z,14.90
2019-05-21T00:30:03.492Z,14.90
2019-05-21T00:33:09.246Z,14.90
2019-05-21T00:36:14.816Z,14.90
2019-05-21T00:39:19.969Z,14.90
2019-05-21T00:42:05.452Z,14.90
2019-05-21T00:44:37.281Z,14.90
2019-05-21T00:47:07.915Z,14.90
2019-05-21T00:49:36.658Z,14.90
2019-05-21T00:52:08.521Z,14.90
2019-05-21T00:54:36.634Z,14.90
2019-05-21T00:57:05.380Z,14.90
2019-05-21T00:59:34.084Z,14.90
2019-05-21T01:02:02.801Z,14.90
2019-05-21T01:04:31.550Z,14.90
2019-05-21T01:07:01.745Z,14.90
2019-05-21T01:09:32.698Z,14.90
2019-05-21T01:12:01.310Z,14.80
2019-05-21T01:14:30.200Z,14.90
2019-05-21T01:16:58.777Z,14.90
2019-05-21T01:19:27.747Z,14.90
2019-05-21T01:21:56.375Z,14.90
2019-05-21T01:24:25.143Z,14.90
2019-05-21T01:26:53.834Z,14.80
2019-05-21T01:29:22.611Z,14.80
2019-05-21T01:31:51.256Z,14.80
2019-05-21T01:34:20.004Z,14.90
2019-05-21T01:36:48.656Z,14.90
2019-05-21T01:39:18.559Z,14.90
2019-05-21T01:41:47.171Z,14.90
2019-05-21T01:44:15.737Z,14.90
2019-05-21T01:46:44.365Z,14.90
2019-05-21T01:49:13.202Z,14.90
2019-05-21T01:51:41.920Z,15.00
2019-05-21T01:54:10.502Z,15.00
2019-05-21T01:56:40.044Z,15.00
2019-05-21T01:59:08.685Z,15.00
2019-05-21T02:01:46.819Z,15.00
2019-05-21T02:04:15.422Z,15.00
2019-05-21T02:06:44.461Z,15.00
2019-05-21T02:09:13.233Z,15.00
2019-05-21T02:11:41.910Z,15.00
2019-05-21T02:14:10.708Z,15.00
2019-05-21T02:16:39.497Z,15.00
2019-05-21T02:19:08.466Z,15.00
2019-05-21T02:21:37.307Z,15.00
2019-05-21T02:24:06.542Z,15.00
2019-05-21T02:26:35.289Z,15.00
2019-05-21T02:29:04.265Z,15.00
2019-05-21T02:31:33.103Z,15.00
2019-05-21T02:34:06.705Z,15.00
2019-05-21T02:36:35.401Z,15.00
2019-05-21T02:39:06.614Z,15.00
2019-05-21T02:41:35.355Z,14.90
2019-05-21T02:44:03.993Z,14.90
2019-05-21T02:46:32.902Z,14.90
2019-05-21T02:49:01.995Z,14.90
2019-05-21T02:51:30.659Z,14.90
2019-05-21T02:53:59.641Z,14.90
2019-05-21T02:56:28.238Z,14.90
2019-05-21T02:58:57.202Z,14.90
2019-05-21T03:01:33.288Z,14.90
2019-05-21T03:04:03.814Z,14.90
2019-05-21T03:06:32.490Z,14.90
2019-05-21T03:09:01.232Z,14.90
2019-05-21T03:11:29.891Z,14.90
2019-05-21T03:13:58.599Z,14.90
2019-05-21T03:16:27.351Z,14.90
2019-05-21T03:18:55.923Z,14.90
2019-05-21T03:21:24.634Z,14.90
2019-05-21T03:23:53.847Z,14.90
2019-05-21T03:26:22.669Z,14.90
2019-05-21T03:28:51.320Z,14.90
2019-05-21T03:31:20.073Z,14.80
2019-05-21T03:33:48.815Z,14.80
2019-05-21T03:36:32.533Z,14.80
2019-05-21T03:38:47.859Z,14.80
2019-05-21T03:41:16.478Z,14.70
2019-05-21T03:43:46.466Z,14.70
2019-05-21T03:46:15.067Z,14.70
2019-05-21T03:48:43.719Z,14.70
2019-05-21T03:51:12.434Z,14.70
2019-05-21T03:53:41.039Z,14.70
2019-05-21T03:56:09.618Z,14.70
2019-05-21T03:58:38.265Z,14.60
2019-05-21T04:01:07.010Z,14.60
2019-05-21T04:03:35.659Z,14.60
2019-05-21T04:06:04.366Z,14.60
2019-05-21T04:08:32.977Z,14.60
2019-05-21T04:11:01.801Z,14.60
2019-05-21T04:13:30.421Z,14.60
2019-05-21T04:16:06.741Z,14.60
2019-05-21T04:18:42.862Z,14.60
2019-05-21T04:21:11.683Z,14.50
2019-05-21T04:23:40.328Z,14.60
2019-05-21T04:26:09.144Z,14.50
2019-05-21T04:28:38.136Z,14.50
2019-05-21T04:31:06.775Z,14.50
2019-05-21T04:33:35.438Z,14.50
2019-05-21T04:36:04.188Z,14.50
2019-05-21T04:38:37.569Z,14.50
2019-05-21T04:41:06.271Z,14.40
2019-05-21T04:43:34.940Z,14.40
2019-05-21T04:46:03.652Z,14.50
2019-05-21T04:48:32.291Z,14.40
2019-05-21T04:51:01.048Z,14.40
2019-05-21T04:53:29.742Z,14.40
2019-05-21T04:55:58.410Z,14.40
2019-05-21T04:58:27.085Z,14.40
2019-05-21T05:00:57.268Z,14.50
2019-05-21T05:03:26.013Z,14.40
2019-05-21T05:05:54.688Z,14.40
2019-05-21T05:08:23.253Z,14.40
2019-05-21T05:10:56.316Z,14.40
2019-05-21T05:13:25.038Z,14.40
2019-05-21T05:15:53.753Z,14.40
2019-05-21T05:18:23.249Z,14.40
2019-05-21T05:20:51.929Z,14.40
2019-05-21T05:23:20.771Z,14.40
2019-05-21T05:25:49.418Z,14.40
2019-05-21T05:28:18.281Z,14.40
2019-05-21T05:30:48.455Z,14.40
2019-05-21T05:33:17.562Z,14.30
2019-05-21T05:35:46.235Z,14.30
2019-05-21T05:38:14.865Z,14.30
2019-05-21T05:40:43.681Z,14.30
2019-05-21T05:43:13.554Z,14.40
2019-05-21T05:45:42.257Z,14.30
2019-05-21T05:48:10.919Z,14.30
2019-05-21T05:50:41.303Z,14.30
2019-05-21T05:53:12.735Z,14.30
2019-05-21T05:55:41.390Z,14.30
2019-05-21T05:58:10.140Z,14.30
2019-05-21T06:00:39.000Z,14.30
2019-05-21T06:03:10.653Z,14.30
2019-05-21T06:05:41.046Z,14.30
2019-05-21T06:08:12.748Z,14.30
2019-05-21T06:10:41.485Z,14.30
2019-05-21T06:13:10.283Z,14.30
2019-05-21T06:15:41.492Z,14.30
2019-05-21T06:18:10.213Z,14.30
2019-05-21T06:20:39.120Z,14.30
2019-05-21T06:23:07.836Z,14.30
2019-05-21T06:25:36.668Z,14.30
2019-05-21T06:28:05.418Z,14.30
2019-05-21T06:30:34.126Z,14.30
2019-05-21T06:33:02.842Z,14.30
2019-05-21T06:35:32.135Z,14.30
2019-05-21T06:38:16.424Z,14.30
2019-05-21T06:40:33.857Z,14.30
2019-05-21T06:43:02.922Z,14.30
2019-05-21T06:45:37.638Z,14.40
2019-05-21T06:48:08.853Z,14.40
2019-05-21T06:50:40.317Z,14.40
2019-05-21T06:53:11.601Z,14.40
2019-05-21T06:55:40.306Z,14.40
2019-05-21T06:58:20.876Z,14.40
2019-05-21T07:00:49.677Z,14.40
2019-05-21T07:03:18.543Z,14.40
2019-05-21T07:05:58.380Z,14.50
2019-05-21T07:08:31.992Z,14.40
2019-05-21T07:10:47.968Z,14.50
2019-05-21T07:13:16.821Z,14.40
2019-05-21T07:15:45.523Z,14.40
2019-05-21T07:18:14.178Z,14.40
2019-05-21T07:20:45.874Z,14.40
2019-05-21T07:23:14.645Z,14.40
2019-05-21T07:25:43.368Z,14.40
2019-05-21T07:28:13.837Z,14.40
2019-05-21T07:30:42.401Z,14.30
2019-05-21T07:33:11.774Z,14.30
2019-05-21T07:35:40.525Z,14.30
2019-05-21T07:38:09.166Z,14.30
2019-05-21T07:40:37.919Z,14.30
2019-05-21T07:43:06.642Z,14.40
2019-05-21T07:45:35.370Z,14.30
2019-05-21T07:48:04.293Z,14.30
2019-05-21T07:50:34.750Z,14.30
2019-05-21T07:53:03.452Z,14.40
2019-05-21T07:55:33.629Z,14.40
2019-05-21T07:58:03.518Z,14.40
2019-05-21T08:00:33.841Z,14.40
2019-05-21T08:03:03.902Z,14.40
2019-05-21T08:05:32.633Z,14.40
2019-05-21T08:08:01.266Z,14.40
2019-05-21T08:10:31.576Z,14.30
2019-05-21T08:13:00.345Z,14.30
2019-05-21T08:15:29.395Z,14.30
2019-05-21T08:18:00.822Z,14.40
2019-05-21T08:20:30.389Z,14.30
2019-05-21T08:23:02.271Z,14.30
2019-05-21T08:25:34.752Z,14.30
2019-05-21T08:28:02.296Z,14.30
2019-05-21T08:30:34.270Z,14.20
2019-05-21T08:33:03.487Z,14.30
2019-05-21T08:35:36.854Z,14.30
2019-05-21T08:38:07.019Z,14.30
2019-05-21T08:40:41.637Z,14.20
2019-05-21T08:43:12.232Z,14.30
2019-05-21T08:45:40.893Z,14.30
2019-05-21T08:48:09.780Z,14.40
2019-05-21T08:50:41.834Z,14.40
2019-05-21T08:53:10.772Z,14.40
2019-05-21T08:55:39.874Z,14.50
2019-05-21T08:58:08.731Z,14.50
2019-05-21T09:00:42.282Z,14.40
2019-05-21T09:03:12.471Z,14.50
2019-05-21T09:05:41.621Z,14.50
2019-05-21T09:08:10.271Z,14.60
2019-05-21T09:10:41.860Z,14.60
2019-05-21T09:13:10.825Z,14.70
2019-05-21T09:15:40.316Z,14.70
2019-05-21T09:18:09.123Z,14.70
2019-05-21T09:20:38.097Z,14.70
2019-05-21T09:23:09.777Z,14.70
2019-05-21T09:25:41.671Z,14.70
2019-05-21T09:28:13.376Z,14.60
2019-05-21T09:30:42.467Z,14.60
2019-05-21T09:33:11.086Z,14.60
2019-05-21T09:35:39.902Z,14.60
2019-05-21T09:38:11.358Z,14.60
2019-05-21T09:40:46.167Z,14.60
2019-05-21T09:43:16.450Z,14.60
2019-05-21T09:45:46.943Z,14.60
2019-05-21T09:48:15.703Z,14.60
2019-05-21T09:50:45.000Z,14.60
2019-05-21T09:53:13.796Z,14.60
2019-05-21T09:55:42.694Z,14.50
2019-05-21T09:58:13.056Z,14.50
2019-05-21T10:00:49.524Z,14.50
2019-05-21T10:03:27.510Z,14.40
2019-05-21T10:06:00.501Z,14.40
2019-05-21T10:08:29.218Z,14.40
2019-05-21T10:10:57.865Z,14.40
2019-05-21T10:13:26.625Z,14.40
2019-05-21T10:16:01.229Z,14.40
2019-05-21T10:18:31.186Z,14.40
2019-05-21T10:21:03.619Z,14.20
2019-05-21T10:23:33.348Z,14.30
2019-05-21T10:26:03.901Z,14.30
2019-05-21T10:28:32.648Z,14.40
2019-05-21T10:31:01.572Z,14.40
2019-05-21T10:33:31.865Z,14.40
2019-05-21T10:36:04.340Z,14.50
2019-05-21T10:38:37.546Z,14.50
2019-05-21T10:41:09.763Z,14.50
2019-05-21T10:43:42.351Z,14.50
2019-05-21T10:46:15.699Z,14.60
2019-05-21T10:48:47.092Z,14.60
2019-05-21T10:51:15.778Z,14.60
2019-05-21T10:53:45.817Z,14.60
2019-05-21T10:56:19.184Z,14.70
2019-05-21T10:58:48.078Z,14.80
2019-05-21T11:01:21.744Z,14.80
2019-05-21T11:04:09.532Z,14.80
2019-05-21T11:06:41.524Z,14.70
2019-05-21T11:09:21.797Z,14.60
2019-05-21T11:11:56.008Z,14.60
2019-05-21T11:14:24.762Z,14.60
2019-05-21T11:16:55.653Z,14.70
2019-05-21T11:19:25.932Z,14.60
2019-05-21T11:21:55.086Z,14.60
2019-05-21T11:24:28.076Z,14.60
2019-05-21T11:26:56.149Z,14.60
2019-05-21T11:29:27.683Z,14.50
2019-05-21T11:31:57.777Z,14.60
2019-05-21T11:34:34.113Z,14.60
2019-05-21T11:37:03.649Z,14.50
2019-05-21T11:39:32.541Z,14.40
2019-05-21T11:42:05.326Z,14.40
2019-05-21T11:44:37.340Z,14.40
2019-05-21T11:47:10.276Z,14.40
2019-05-21T11:49:39.255Z,14.50
2019-05-21T11:52:08.000Z,14.60
2019-05-21T11:54:42.768Z,14.70
2019-05-21T11:57:11.510Z,14.70
2019-05-21T11:59:40.278Z,14.70
2019-05-21T12:02:11.182Z,14.70
2019-05-21T12:04:40.908Z,14.80
2019-05-21T12:07:13.320Z,14.80
2019-05-21T12:09:45.218Z,14.90
2019-05-21T12:12:13.870Z,14.90
2019-05-21T12:14:43.681Z,14.80
2019-05-21T12:17:12.389Z,14.80
2019-05-21T12:19:41.122Z,14.70
2019-05-21T12:22:09.794Z,14.70
2019-05-21T12:24:38.792Z,14.70
2019-05-21T12:27:09.204Z,14.80
2019-05-21T12:29:39.181Z,14.70
2019-05-21T12:32:07.871Z,14.70
2019-05-21T12:34:38.949Z,14.70
2019-05-21T12:37:07.545Z,14.60
2019-05-21T12:39:36.554Z,14.70
2019-05-21T12:42:05.410Z,14.70
2019-05-21T12:44:35.740Z,14.70
2019-05-21T12:47:04.641Z,14.70
2019-05-21T12:49:33.296Z,14.70
2019-05-21T12:52:02.412Z,14.70
2019-05-21T12:54:31.049Z,14.70
2019-05-21T12:56:59.833Z,14.80
2019-05-21T12:59:28.601Z,14.70
2019-05-21T13:01:57.737Z,14.80
2019-05-21T13:04:26.463Z,14.80
2019-05-21T13:06:55.228Z,14.90
2019-05-21T13:09:32.667Z,14.90
2019-05-21T13:11:59.695Z,14.90
2019-05-21T13:14:28.374Z,15.00
2019-05-21T13:17:03.246Z,15.10
2019-05-21T13:19:31.654Z,15.00
2019-05-21T13:22:03.629Z,14.90
2019-05-21T13:24:38.469Z,15.00
2019-05-21T13:27:08.910Z,15.00
2019-05-21T13:29:43.499Z,15.10
2019-05-21T13:32:17.617Z,15.00
2019-05-21T13:37:36.443Z,15.10
2019-05-21T13:40:12.087Z,15.20
2019-05-21T13:42:45.162Z,15.20
2019-05-21T13:45:13.912Z,15.20
2019-05-21T13:47:42.693Z,15.20
2019-05-21T13:50:11.445Z,15.10
2019-05-21T13:52:40.337Z,15.10
2019-05-21T13:55:12.492Z,15.10
2019-05-21T13:57:42.394Z,15.00
2019-05-21T14:00:14.247Z,15.00
2019-05-21T14:02:42.920Z,14.90
2019-05-21T14:05:15.328Z,14.90
2019-05-21T14:07:45.263Z,14.90
2019-05-21T14:10:19.787Z,14.80
2019-05-21T14:12:46.442Z,14.80
2019-05-21T14:15:15.632Z,14.70
2019-05-21T14:17:44.441Z,14.70
2019-05-21T14:20:20.213Z,14.70
2019-05-21T14:22:51.698Z,14.60
2019-05-21T14:25:20.441Z,14.60
2019-05-21T14:27:53.042Z,14.60
2019-05-21T14:30:22.076Z,14.50
2019-05-21T14:32:50.883Z,14.50
2019-05-21T14:35:22.558Z,14.50
2019-05-21T14:37:59.046Z,14.50
2019-05-21T14:40:45.903Z,14.60
2019-05-21T14:43:18.201Z,14.60
2019-05-21T14:45:47.223Z,14.60
2019-05-21T14:48:17.364Z,14.50
2019-05-21T14:50:53.516Z,14.60
2019-05-21T14:53:25.548Z,14.50
2019-05-21T14:55:55.859Z,14.50
2019-05-21T14:58:24.814Z,14.50
2019-05-21T15:00:53.537Z,14.50
2019-05-21T15:03:31.497Z,14.40
2019-05-21T15:06:00.929Z,14.40
2019-05-21T15:08:32.910Z,14.30
2019-05-21T15:11:01.626Z,14.40
2019-05-21T15:13:30.393Z,14.30
2019-05-21T15:16:01.872Z,14.30
2019-05-21T15:18:35.239Z,14.20
2019-05-21T15:21:08.344Z,14.20
2019-05-21T15:23:44.166Z,14.20
2019-05-21T15:26:16.676Z,14.20
2019-05-21T15:28:46.846Z,14.20
2019-05-21T15:31:17.822Z,14.20
2019-05-21T15:33:47.314Z,14.20
2019-05-21T15:36:18.725Z,14.20
2019-05-21T15:38:50.976Z,14.20
2019-05-21T15:41:19.459Z,14.20
2019-05-21T15:43:52.304Z,14.20
2019-05-21T15:46:21.332Z,14.20
2019-05-21T15:48:55.421Z,14.20
2019-05-21T15:51:28.769Z,14.10
2019-05-21T15:54:01.659Z,14.00
2019-05-21T15:56:36.716Z,14.00
2019-05-21T15:59:07.833Z,14.00
2019-05-21T16:01:44.231Z,13.90
2019-05-21T16:04:18.879Z,13.90
2019-05-21T16:06:54.652Z,13.90
2019-05-21T16:09:23.364Z,14.00
2019-05-21T16:11:52.280Z,13.90
2019-05-21T16:14:22.855Z,13.90
2019-05-21T16:16:53.585Z,13.80
2019-05-21T16:19:29.640Z,13.80
2019-05-21T16:21:58.721Z,13.70
2019-05-21T16:24:29.640Z,13.70
2019-05-21T16:27:01.719Z,13.70
2019-05-21T16:29:30.399Z,13.70
2019-05-21T16:32:05.719Z,13.70
2019-05-21T16:34:37.659Z,13.60
2019-05-21T16:37:06.756Z,13.60
2019-05-21T16:39:37.260Z,13.60
2019-05-21T16:42:09.158Z,13.60
2019-05-21T16:44:40.190Z,13.60
2019-05-21T16:47:11.271Z,13.60
2019-05-21T16:49:40.114Z,13.60
2019-05-21T16:52:08.990Z,13.50
2019-05-21T16:54:40.585Z,13.50
2019-05-21T16:57:09.154Z,13.50
2019-05-21T16:59:39.990Z,13.50
2019-05-21T17:02:11.785Z,13.50
2019-05-21T17:04:41.457Z,13.50
2019-05-21T17:07:18.997Z,13.50
2019-05-21T17:09:47.906Z,13.50
2019-05-21T17:12:17.109Z,13.40
2019-05-21T17:14:49.697Z,13.40
2019-05-21T17:17:16.438Z,13.50
2019-05-21T17:19:51.827Z,13.50
2019-05-21T17:22:20.652Z,13.50
2019-05-21T17:24:51.642Z,13.50
2019-05-21T17:27:22.971Z,13.60
2019-05-21T17:29:54.724Z,13.60
2019-05-21T17:32:23.389Z,13.60
2019-05-21T17:34:52.246Z,13.60
2019-05-21T17:37:24.620Z,13.60
2019-05-21T17:39:56.466Z,13.60
2019-05-21T17:42:25.846Z,13.60
2019-05-21T17:44:54.974Z,13.60
2019-05-21T17:47:24.219Z,13.60
2019-05-21T17:49:57.592Z,13.60
2019-05-21T17:52:33.752Z,13.60
2019-05-21T17:55:02.893Z,13.60
2019-05-21T17:57:33.566Z,13.60
2019-05-21T18:00:02.707Z,13.60
2019-05-21T18:02:35.464Z,13.60
2019-05-21T18:05:04.142Z,13.60
2019-05-21T18:07:33.406Z,13.60
2019-05-21T18:10:03.809Z,13.60
2019-05-21T18:12:32.955Z,13.70
2019-05-21T18:15:10.192Z,13.60
2019-05-21T18:17:41.685Z,13.60
2019-05-21T18:20:13.160Z,13.60
2019-05-21T18:22:45.275Z,13.60
2019-05-21T18:25:14.357Z,13.60
2019-05-21T18:27:48.170Z,13.60
2019-05-21T18:30:18.846Z,13.60
2019-05-21T18:32:52.156Z,13.60
2019-05-21T18:35:24.663Z,13.60
2019-05-21T18:37:53.647Z,13.60
2019-05-21T18:40:26.180Z,13.60
2019-05-21T18:42:55.864Z,13.60
2019-05-21T18:45:24.897Z,13.60
2019-05-21T18:47:53.684Z,13.50
2019-05-21T18:50:34.837Z,13.60
2019-05-21T18:52:57.918Z,13.60
2019-05-21T18:55:29.677Z,13.50
2019-05-21T18:58:05.826Z,13.50
2019-05-21T19:00:36.022Z,13.50
2019-05-21T19:03:05.140Z,13.60
2019-05-21T19:05:35.855Z,13.50
2019-05-21T19:08:06.113Z,13.50
2019-05-21T19:10:34.912Z,13.50
2019-05-21T19:13:08.998Z,13.50
2019-05-21T19:15:39.722Z,13.50
2019-05-21T19:18:08.438Z,13.60
2019-05-21T19:20:50.141Z,13.60
2019-05-21T19:23:19.300Z,13.60
2019-05-21T19:25:49.830Z,13.60
2019-05-21T19:28:20.823Z,13.60
2019-05-21T19:31:00.487Z,13.50
2019-05-21T19:33:33.262Z,13.60
2019-05-21T19:36:06.177Z,13.50
2019-05-21T19:38:37.253Z,13.50
2019-05-21T19:41:09.482Z,13.50
2019-05-21T19:43:39.840Z,13.50
2019-05-21T19:46:18.914Z,13.50
2019-05-21T19:48:49.604Z,13.50
2019-05-21T19:51:18.328Z,13.60
2019-05-21T19:53:48.695Z,13.50
2019-05-21T19:56:19.658Z,13.50
2019-05-21T19:58:51.744Z,13.50
2019-05-21T20:01:23.852Z,13.50
2019-05-21T20:03:57.025Z,13.50
2019-05-21T20:06:27.153Z,13.50
2019-05-21T20:08:57.914Z,13.50
2019-05-21T20:11:26.655Z,13.50
2019-05-21T20:13:58.328Z,13.50
2019-05-21T20:16:37.143Z,13.50
2019-05-21T20:19:10.431Z,13.50
2019-05-21T20:21:40.442Z,13.50
2019-05-21T20:24:10.566Z,13.50
2019-05-21T20:26:39.866Z,13.50
2019-05-21T20:29:14.147Z,13.50
2019-05-21T20:31:47.391Z,13.50
2019-05-21T20:34:18.325Z,13.50
2019-05-21T20:36:48.580Z,13.50
2019-05-21T20:39:19.088Z,13.50
2019-05-21T20:41:48.672Z,13.50
2019-05-21T20:44:21.238Z,13.40
2019-05-21T20:46:57.321Z,13.40
2019-05-21T20:49:32.590Z,13.50
2019-05-21T20:52:17.745Z,13.50
2019-05-21T20:54:45.171Z,13.40
2019-05-21T20:57:16.857Z,13.40
2019-05-21T20:59:46.776Z,13.40
2019-05-21T21:02:19.377Z,13.40
2019-05-21T21:04:48.103Z,13.40
2019-05-21T21:07:17.884Z,13.40
2019-05-21T21:09:47.274Z,13.40
2019-05-21T21:12:17.689Z,13.30
2019-05-21T21:14:53.629Z,13.40
2019-05-21T21:17:23.756Z,13.30
2019-05-21T21:19:52.466Z,13.30
2019-05-21T21:22:22.606Z,13.30
2019-05-21T21:25:00.422Z,13.30
2019-05-21T21:27:30.774Z,13.30
2019-05-21T21:29:59.510Z,13.30
2019-05-21T21:32:28.742Z,13.30
2019-05-21T21:35:00.133Z,13.20
2019-05-21T21:37:33.273Z,13.20
2019-05-21T21:40:05.539Z,13.20
2019-05-21T21:42:34.555Z,13.20
2019-05-21T21:45:06.003Z,13.20
2019-05-21T21:47:34.986Z,13.20
2019-05-21T21:50:06.466Z,13.20
2019-05-21T21:52:35.717Z,13.20
2019-05-21T21:55:07.553Z,13.20
2019-05-21T21:57:37.645Z,13.20
2019-05-21T22:00:30.378Z,13.10
2019-05-21T22:03:04.082Z,13.20
2019-05-21T22:05:40.849Z,13.10
2019-05-21T22:08:10.591Z,13.10
2019-05-21T22:10:40.777Z,13.10
2019-05-21T22:13:09.478Z,13.10
2019-05-21T22:15:39.025Z,13.10
2019-05-21T22:18:29.191Z,13.10
2019-05-21T22:20:59.570Z,13.10
2019-05-21T22:23:29.251Z,13.10
2019-05-21T22:25:58.129Z,13.00
2019-05-21T22:28:27.317Z,13.00
2019-05-21T22:31:00.942Z,13.00
2019-05-21T22:33:30.027Z,13.10
2019-05-21T22:35:58.985Z,13.00
2019-05-21T22:38:28.373Z,13.00
2019-05-21T22:40:57.337Z,13.00
2019-05-21T22:43:26.570Z,13.00
2019-05-21T22:45:55.753Z,13.00
2019-05-21T22:48:25.642Z,13.00
2019-05-21T22:50:54.281Z,12.90
2019-05-21T22:53:27.788Z,12.90
2019-05-21T22:56:00.496Z,12.90
2019-05-21T22:58:29.101Z,12.90
2019-05-21T23:01:03.075Z,12.90
2019-05-21T23:03:31.250Z,12.80
2019-05-21T23:05:59.893Z,12.90
2019-05-21T23:08:29.260Z,12.80
2019-05-21T23:10:58.649Z,12.80
2019-05-21T23:13:27.427Z,12.80
2019-05-21T23:15:58.028Z,12.80
2019-05-21T23:18:28.296Z,12.80
2019-05-21T23:20:58.416Z,12.80
2019-05-21T23:23:28.328Z,12.80
2019-05-21T23:25:59.208Z,12.80
2019-05-21T23:28:28.294Z,12.80
2019-05-21T23:30:57.980Z,12.80
2019-05-21T23:33:27.539Z,12.80
2019-05-21T23:35:57.170Z,12.80
2019-05-21T23:38:26.312Z,12.80
2019-05-21T23:40:55.798Z,12.70
2019-05-21T23:43:24.880Z,12.70
2019-05-21T23:45:53.595Z,12.70
2019-05-21T23:48:25.155Z,12.70
2019-05-21T23:50:54.232Z,12.70
2019-05-21T23:53:26.636Z,12.70
2019-05-21T23:55:56.632Z,12.60
2019-05-21T23:58:25.281Z,12.70
